createdAt,value
2022-12-11T00:01:39.164Z,0.88
2022-12-11T00:04:10.087Z,1.00
2022-12-11T00:06:40.745Z,0.88
2022-12-11T00:09:12.196Z,0.85
2022-12-11T00:11:43.144Z,1.85
2022-12-11T00:14:14.388Z,0.65
2022-12-11T00:16:45.763Z,0.80
2022-12-11T00:19:16.453Z,0.70
2022-12-11T00:21:47.127Z,0.60
2022-12-11T00:24:18.971Z,0.65
2022-12-11T00:26:49.626Z,0.98
2022-12-11T00:29:20.463Z,0.90
2022-12-11T00:31:50.803Z,0.77
2022-12-11T00:34:21.597Z,0.98
2022-12-11T00:36:51.949Z,0.70
2022-12-11T00:39:22.292Z,0.70
2022-12-11T00:41:52.835Z,1.10
2022-12-11T00:44:23.468Z,1.15
2022-12-11T00:46:53.886Z,0.50
2022-12-11T00:49:24.687Z,0.90
2022-12-11T00:51:56.187Z,0.95
2022-12-11T00:54:26.950Z,0.98
2022-12-11T00:56:58.730Z,0.80
2022-12-11T00:59:30.970Z,0.77
2022-12-11T01:02:01.860Z,0.52
2022-12-11T01:04:32.605Z,0.70
2022-12-11T01:07:02.885Z,0.85
2022-12-11T01:09:51.521Z,0.73
2022-12-11T01:12:21.777Z,0.70
2022-12-11T01:14:52.066Z,0.73
2022-12-11T01:17:22.398Z,0.70
2022-12-11T01:19:52.880Z,0.57
2022-12-11T01:22:23.985Z,1.23
2022-12-11T01:24:54.729Z,0.60
2022-12-11T01:27:24.976Z,1.05
2022-12-11T01:29:55.742Z,0.60
2022-12-11T01:32:26.430Z,1.00
2022-12-11T01:34:57.540Z,0.60
2022-12-11T01:37:28.180Z,1.10
2022-12-11T01:39:58.834Z,0.70
2022-12-11T01:42:31.165Z,0.50
2022-12-11T01:45:28.670Z,0.70
2022-12-11T01:48:08.733Z,0.75
2022-12-11T01:51:04.352Z,1.15
2022-12-11T01:53:40.733Z,0.68
2022-12-11T01:56:12.647Z,0.50
2022-12-11T01:58:53.721Z,0.40
2022-12-11T02:01:36.812Z,0.32
2022-12-11T02:04:08.906Z,0.55
2022-12-11T02:06:52.296Z,0.43
2022-12-11T02:09:29.348Z,0.60
2022-12-11T02:12:12.285Z,0.60
2022-12-11T02:15:16.002Z,1.10
2022-12-11T02:17:58.238Z,0.50
2022-12-11T02:20:38.565Z,0.93
2022-12-11T02:23:30.457Z,3.38
2022-12-11T02:26:21.595Z,0.80
2022-12-11T02:28:56.840Z,1.00
2022-12-11T02:31:33.371Z,0.70
2022-12-11T02:34:13.054Z,0.95
2022-12-11T02:36:47.665Z,1.05
2022-12-11T02:39:20.372Z,0.60
2022-12-11T02:41:53.081Z,0.60
2022-12-11T02:44:28.480Z,0.70
2022-12-11T02:47:01.458Z,0.77
2022-12-11T02:49:34.899Z,0.70
2022-12-11T02:52:08.385Z,0.60
2022-12-11T02:54:41.793Z,0.50
2022-12-11T02:57:26.500Z,0.60
2022-12-11T02:59:57.434Z,0.57
2022-12-11T03:02:28.214Z,0.80
2022-12-11T03:04:59.521Z,0.80
2022-12-11T03:07:33.868Z,0.50
2022-12-11T03:10:04.287Z,0.75
2022-12-11T03:12:37.694Z,0.88
2022-12-11T03:15:13.262Z,0.40
2022-12-11T03:17:59.392Z,0.95
2022-12-11T03:20:35.823Z,0.70
2022-12-11T03:23:11.987Z,0.70
2022-12-11T03:28:22.913Z,0.70
2022-12-11T03:30:56.160Z,0.85
2022-12-11T03:33:48.448Z,0.38
2022-12-11T03:36:29.678Z,0.90
2022-12-11T03:39:10.676Z,0.60
2022-12-11T03:41:43.721Z,0.63
2022-12-11T03:44:16.354Z,0.60
2022-12-11T03:46:48.624Z,1.15
2022-12-11T03:49:23.101Z,0.88
2022-12-11T03:51:56.088Z,0.70
2022-12-11T03:54:27.128Z,0.90
2022-12-11T03:57:01.010Z,0.80
2022-12-11T03:59:31.265Z,0.65
2022-12-11T04:02:12.371Z,0.73
2022-12-11T04:04:44.003Z,0.60
2022-12-11T04:07:14.280Z,0.90
2022-12-11T04:09:44.557Z,0.93
2022-12-11T04:12:15.021Z,1.25
2022-12-11T04:15:03.204Z,0.98
2022-12-11T04:17:53.255Z,0.45
2022-12-11T04:20:43.111Z,1.00
2022-12-11T04:23:35.666Z,1.30
2022-12-11T04:26:22.513Z,1.00
2022-12-11T04:28:55.896Z,0.80
2022-12-11T04:31:27.899Z,0.70
2022-12-11T04:33:58.272Z,0.73
2022-12-11T04:36:29.366Z,0.68
2022-12-11T04:39:01.580Z,0.60
2022-12-11T04:41:32.748Z,0.50
2022-12-11T04:44:03.512Z,0.80
2022-12-11T04:46:35.531Z,0.82
2022-12-11T04:49:05.928Z,0.60
2022-12-11T04:51:36.810Z,0.57
2022-12-11T04:54:07.097Z,0.60
2022-12-11T04:56:37.390Z,0.60
2022-12-11T04:59:08.735Z,1.00
2022-12-11T05:01:40.740Z,1.35
2022-12-11T05:04:11.057Z,1.08
2022-12-11T05:06:41.520Z,0.40
2022-12-11T05:09:15.682Z,0.40
2022-12-11T05:11:46.437Z,0.73
2022-12-11T05:14:17.287Z,0.60
2022-12-11T05:16:48.257Z,1.48
2022-12-11T05:19:18.786Z,1.40
2022-12-11T05:21:49.193Z,0.60
2022-12-11T05:24:19.408Z,0.75
2022-12-11T05:26:49.816Z,0.60
2022-12-11T05:29:20.173Z,0.90
2022-12-11T05:31:50.443Z,0.70
2022-12-11T05:34:20.763Z,0.70
2022-12-11T05:36:51.258Z,1.00
2022-12-11T05:39:22.026Z,1.23
2022-12-11T05:41:52.596Z,0.90
2022-12-11T05:44:22.854Z,0.60
2022-12-11T05:46:53.510Z,0.50
2022-12-11T05:49:30.553Z,0.80
2022-12-11T05:52:01.872Z,2.15
2022-12-11T05:54:32.159Z,0.73
2022-12-11T05:57:02.657Z,0.77
2022-12-11T05:59:32.991Z,0.50
2022-12-11T06:02:03.534Z,0.50
2022-12-11T06:04:34.293Z,0.82
2022-12-11T06:07:05.131Z,0.50
2022-12-11T06:09:35.740Z,0.73
2022-12-11T06:12:07.377Z,0.80
2022-12-11T06:14:38.514Z,0.70
2022-12-11T06:17:10.705Z,0.47
2022-12-11T06:19:41.078Z,0.50
2022-12-11T06:22:11.518Z,0.65
2022-12-11T06:24:41.901Z,0.55
2022-12-11T06:27:12.264Z,0.68
2022-12-11T06:29:42.648Z,0.80
2022-12-11T06:32:12.959Z,0.70
2022-12-11T06:34:43.243Z,0.47
2022-12-11T06:37:13.630Z,0.47
2022-12-11T06:39:44.947Z,0.82
2022-12-11T06:42:15.962Z,0.55
2022-12-11T06:44:46.190Z,0.70
2022-12-11T06:47:16.413Z,0.88
2022-12-11T06:49:46.622Z,0.50
2022-12-11T06:52:18.722Z,0.90
2022-12-11T06:54:49.229Z,1.25
2022-12-11T06:57:22.264Z,0.55
2022-12-11T06:59:52.799Z,0.80
2022-12-11T07:02:24.249Z,0.50
2022-12-11T07:04:55.363Z,0.50
2022-12-11T07:07:26.171Z,0.73
2022-12-11T07:09:56.498Z,0.80
2022-12-11T07:12:28.650Z,0.70
2022-12-11T07:14:59.393Z,0.70
2022-12-11T07:17:30.986Z,0.75
2022-12-11T07:20:01.306Z,1.27
2022-12-11T07:22:32.337Z,0.55
2022-12-11T07:25:02.648Z,1.13
2022-12-11T07:27:33.065Z,0.82
2022-12-11T07:30:03.404Z,0.50
2022-12-11T07:32:33.995Z,0.45
2022-12-11T07:35:04.781Z,0.82
2022-12-11T07:37:35.348Z,0.57
2022-12-11T07:40:05.686Z,0.77
2022-12-11T07:42:38.372Z,0.70
2022-12-11T07:45:12.346Z,0.60
2022-12-11T07:47:42.925Z,0.70
2022-12-11T07:50:13.359Z,0.52
2022-12-11T07:52:43.645Z,0.50
2022-12-11T07:55:14.008Z,0.50
2022-12-11T07:57:44.680Z,0.50
2022-12-11T08:00:15.663Z,0.80
2022-12-11T08:02:46.429Z,0.50
2022-12-11T08:05:16.729Z,0.63
2022-12-11T08:07:47.010Z,0.70
2022-12-11T08:10:17.287Z,0.70
2022-12-11T08:12:47.530Z,0.57
2022-12-11T08:15:19.168Z,0.85
2022-12-11T08:17:49.829Z,0.40
2022-12-11T08:20:20.553Z,0.55
2022-12-11T08:22:58.827Z,0.65
2022-12-11T08:25:29.331Z,0.68
2022-12-11T08:27:59.966Z,0.40
2022-12-11T08:30:30.760Z,0.63
2022-12-11T08:33:02.073Z,0.63
2022-12-11T08:35:32.347Z,0.77
2022-12-11T08:38:03.287Z,0.63
2022-12-11T08:40:33.576Z,0.63
2022-12-11T08:43:03.827Z,0.50
2022-12-11T08:45:34.076Z,1.00
2022-12-11T08:48:04.411Z,0.47
2022-12-11T08:50:35.055Z,0.65
2022-12-11T08:53:06.331Z,0.40
2022-12-11T08:55:37.521Z,0.82
2022-12-11T08:58:07.777Z,0.52
2022-12-11T09:00:38.454Z,0.90
2022-12-11T09:03:12.788Z,0.80
2022-12-11T09:05:44.370Z,0.90
2022-12-11T09:08:15.273Z,0.63
2022-12-11T09:10:45.911Z,0.70
2022-12-11T09:13:16.414Z,1.33
2022-12-11T09:15:46.729Z,0.70
2022-12-11T09:18:17.205Z,1.80
2022-12-11T09:20:47.442Z,1.17
2022-12-11T09:23:18.016Z,1.23
2022-12-11T09:25:48.282Z,0.80
2022-12-11T09:28:19.510Z,1.23
2022-12-11T09:30:52.609Z,1.08
2022-12-11T09:33:22.916Z,0.70
2022-12-11T09:36:04.905Z,0.88
2022-12-11T09:38:36.807Z,0.80
2022-12-11T09:41:47.410Z,0.85
2022-12-11T09:44:44.250Z,0.80
2022-12-11T09:47:19.541Z,1.20
2022-12-11T09:49:53.418Z,0.75
2022-12-11T09:52:53.882Z,1.23
2022-12-11T09:55:26.819Z,1.05
2022-12-11T09:58:53.404Z,1.10
2022-12-11T10:01:30.557Z,1.40
2022-12-11T10:04:21.845Z,1.10
2022-12-11T10:07:16.430Z,0.90
2022-12-11T10:09:57.260Z,0.88
2022-12-11T10:12:28.392Z,1.00
2022-12-11T10:15:15.424Z,1.15
2022-12-11T10:20:41.502Z,1.02
2022-12-11T10:23:26.756Z,1.08
2022-12-11T10:26:10.866Z,1.02
2022-12-11T10:28:42.301Z,1.35
2022-12-11T10:31:37.317Z,0.80
2022-12-11T10:34:17.913Z,1.00
2022-12-11T10:36:48.732Z,0.85
2022-12-11T10:39:23.929Z,1.02
2022-12-11T10:41:56.809Z,0.97
2022-12-11T10:44:34.845Z,1.42
2022-12-11T10:47:13.692Z,2.05
2022-12-11T10:49:57.798Z,1.42
2022-12-11T10:52:47.509Z,3.53
2022-12-11T10:55:27.001Z,3.90
2022-12-11T10:58:08.805Z,3.95
2022-12-11T11:00:44.498Z,2.72
2022-12-11T11:03:27.824Z,2.60
2022-12-11T11:06:17.016Z,2.45
2022-12-11T11:08:50.559Z,1.70
2022-12-11T11:11:38.483Z,1.40
2022-12-11T11:14:24.621Z,1.25
2022-12-11T11:16:59.121Z,1.38
2022-12-11T11:19:33.021Z,1.10
2022-12-11T11:22:10.064Z,1.42
2022-12-11T11:24:46.334Z,1.15
2022-12-11T11:27:47.925Z,1.30
2022-12-11T11:30:31.267Z,0.85
2022-12-11T11:33:07.419Z,0.68
2022-12-11T11:35:39.115Z,0.70
2022-12-11T11:38:22.201Z,0.95
2022-12-11T11:41:14.541Z,1.05
2022-12-11T11:43:49.326Z,0.90
2022-12-11T11:46:40.196Z,0.88
2022-12-11T11:49:23.586Z,0.73
2022-12-11T11:52:15.557Z,0.85
2022-12-11T11:55:21.486Z,0.90
2022-12-11T11:58:31.186Z,1.08
2022-12-11T12:01:02.087Z,1.23
2022-12-11T12:03:40.632Z,0.80
2022-12-11T12:06:22.591Z,0.73
2022-12-11T12:09:12.536Z,0.70
2022-12-11T12:12:01.550Z,0.70
2022-12-11T12:15:10.280Z,0.55
2022-12-11T12:17:56.488Z,0.75
2022-12-11T12:20:49.561Z,0.60
2022-12-11T12:24:01.055Z,0.40
2022-12-11T12:26:42.002Z,0.60
2022-12-11T12:29:36.862Z,0.50
2022-12-11T12:32:10.339Z,1.10
2022-12-11T12:34:52.380Z,0.50
2022-12-11T12:37:27.743Z,0.40
2022-12-11T12:40:06.046Z,0.47
2022-12-11T12:43:13.376Z,0.40
2022-12-11T12:46:10.988Z,0.40
2022-12-11T12:51:17.097Z,0.40
2022-12-11T12:53:59.763Z,0.40
2022-12-11T12:56:33.029Z,0.55
2022-12-11T12:59:03.645Z,0.77
2022-12-11T13:01:34.669Z,0.45
2022-12-11T13:04:26.278Z,0.35
2022-12-11T13:07:00.269Z,0.60
2022-12-11T13:09:31.437Z,0.52
2022-12-11T13:12:01.824Z,0.47
2022-12-11T13:14:35.576Z,0.40
2022-12-11T13:17:39.905Z,0.32
2022-12-11T13:20:19.732Z,0.63
2022-12-11T13:22:58.981Z,0.43
2022-12-11T13:25:40.240Z,0.70
2022-12-11T13:28:24.208Z,0.50
2022-12-11T13:31:29.021Z,1.58
2022-12-11T13:34:05.822Z,0.60
2022-12-11T13:36:39.362Z,0.50
2022-12-11T13:39:27.430Z,0.40
2022-12-11T13:42:04.686Z,0.60
2022-12-11T13:44:43.010Z,0.50
2022-12-11T13:47:20.682Z,0.95
2022-12-11T13:49:56.690Z,0.40
2022-12-11T13:52:29.869Z,0.60
2022-12-11T13:55:01.413Z,0.80
2022-12-11T13:57:32.453Z,0.40
2022-12-11T14:00:02.662Z,0.50
2022-12-11T14:02:44.208Z,0.90
2022-12-11T14:05:17.168Z,0.45
2022-12-11T14:07:59.463Z,1.25
2022-12-11T14:10:33.702Z,0.50
2022-12-11T14:13:16.223Z,0.50
2022-12-11T14:15:48.950Z,0.47
2022-12-11T14:18:26.477Z,0.60
2022-12-11T14:20:59.348Z,0.35
2022-12-11T14:23:32.385Z,0.70
2022-12-11T14:26:19.277Z,1.42
2022-12-11T14:28:50.071Z,0.40
2022-12-11T14:31:35.906Z,1.27
2022-12-11T14:34:11.653Z,0.40
2022-12-11T14:36:43.594Z,0.60
2022-12-11T14:39:19.629Z,0.30
2022-12-11T14:42:02.368Z,0.82
2022-12-11T14:44:37.282Z,0.50
2022-12-11T14:47:15.539Z,0.52
2022-12-11T14:50:00.496Z,0.73
2022-12-11T14:52:41.513Z,0.68
2022-12-11T14:55:18.377Z,0.47
2022-12-11T14:57:52.261Z,0.57
2022-12-11T15:00:35.129Z,0.65
2022-12-11T15:03:24.728Z,0.73
2022-12-11T15:06:01.565Z,0.70
2022-12-11T15:08:45.471Z,0.63
2022-12-11T15:11:25.496Z,0.50
2022-12-11T15:14:17.352Z,0.60
2022-12-11T15:16:49.811Z,0.47
2022-12-11T15:19:32.469Z,0.70
2022-12-11T15:22:08.185Z,1.10
2022-12-11T15:24:44.855Z,1.35
2022-12-11T15:27:37.287Z,0.68
2022-12-11T15:30:40.484Z,1.15
2022-12-11T15:33:13.727Z,0.90
2022-12-11T15:36:03.125Z,1.00
2022-12-11T15:38:37.518Z,1.02
2022-12-11T15:41:08.845Z,1.35
2022-12-11T15:43:41.135Z,1.17
2022-12-11T15:46:11.385Z,1.63
2022-12-11T15:48:41.644Z,1.42
2022-12-11T15:51:13.496Z,0.95
2022-12-11T15:53:43.751Z,0.80
2022-12-11T15:56:18.211Z,0.70
2022-12-11T15:58:49.395Z,0.80
2022-12-11T16:01:19.986Z,0.60
2022-12-11T16:03:52.010Z,0.80
2022-12-11T16:06:22.945Z,0.60
2022-12-11T16:08:53.138Z,1.00
2022-12-11T16:11:23.381Z,0.82
2022-12-11T16:13:53.575Z,0.77
2022-12-11T16:16:24.281Z,0.80
2022-12-11T16:18:54.515Z,0.70
2022-12-11T16:21:24.811Z,0.85
2022-12-11T16:23:55.421Z,0.63
2022-12-11T16:26:27.176Z,1.00
2022-12-11T16:28:57.824Z,1.20
2022-12-11T16:31:30.774Z,0.75
2022-12-11T16:34:01.268Z,1.08
2022-12-11T16:36:31.921Z,0.88
2022-12-11T16:39:02.115Z,1.25
2022-12-11T16:41:32.903Z,0.60
2022-12-11T16:44:05.293Z,0.70
2022-12-11T16:46:36.809Z,1.35
2022-12-11T16:49:07.835Z,1.13
2022-12-11T16:51:39.432Z,1.10
2022-12-11T16:54:09.674Z,1.42
2022-12-11T16:56:40.342Z,0.90
2022-12-11T16:59:11.265Z,1.20
2022-12-11T17:01:43.382Z,1.08
2022-12-11T17:04:14.170Z,1.23
2022-12-11T17:06:44.608Z,2.15
2022-12-11T17:09:14.899Z,1.63
2022-12-11T17:11:45.290Z,1.30
2022-12-11T17:14:18.325Z,2.17
2022-12-11T17:16:49.763Z,1.20
2022-12-11T17:19:20.553Z,1.08
2022-12-11T17:21:52.056Z,1.20
2022-12-11T17:24:22.320Z,1.23
2022-12-11T17:26:52.959Z,0.98
2022-12-11T17:29:24.146Z,1.35
2022-12-11T17:31:54.908Z,1.40
2022-12-11T17:34:25.647Z,1.25
2022-12-11T17:36:58.793Z,1.50
2022-12-11T17:39:29.871Z,0.90
2022-12-11T17:42:01.362Z,1.33
2022-12-11T17:44:34.904Z,1.23
2022-12-11T17:47:10.810Z,0.90
2022-12-11T17:49:42.680Z,1.20
2022-12-11T17:52:13.031Z,1.00
2022-12-11T17:54:43.828Z,1.60
2022-12-11T17:57:14.596Z,1.02
2022-12-11T17:59:46.002Z,1.40
2022-12-11T18:02:16.261Z,0.85
2022-12-11T18:04:46.858Z,0.63
2022-12-11T18:07:17.100Z,0.68
2022-12-11T18:09:48.114Z,0.73
2022-12-11T18:12:18.788Z,1.27
2022-12-11T18:14:49.573Z,1.25
2022-12-11T18:17:19.838Z,0.70
2022-12-11T18:19:50.578Z,0.82
2022-12-11T18:22:21.617Z,1.13
2022-12-11T18:24:51.899Z,0.65
2022-12-11T18:27:22.230Z,1.13
2022-12-11T18:29:53.019Z,0.50
2022-12-11T18:32:23.228Z,0.60
2022-12-11T18:34:53.602Z,1.23
2022-12-11T18:37:27.886Z,0.63
2022-12-11T18:39:58.618Z,0.70
2022-12-11T18:42:33.600Z,0.98
2022-12-11T18:45:04.772Z,0.85
2022-12-11T18:47:35.567Z,0.60
2022-12-11T18:50:08.178Z,1.52
2022-12-11T18:52:41.980Z,0.70
2022-12-11T18:55:12.764Z,0.70
2022-12-11T18:57:43.207Z,0.82
2022-12-11T19:00:14.164Z,0.75
2022-12-11T19:02:44.535Z,0.60
2022-12-11T19:05:15.410Z,0.65
2022-12-11T19:07:46.201Z,0.70
2022-12-11T19:10:17.084Z,0.70
2022-12-11T19:12:47.313Z,0.68
2022-12-11T19:15:23.321Z,0.70
2022-12-11T19:17:54.121Z,1.83
2022-12-11T19:20:47.907Z,1.08
2022-12-11T19:23:15.502Z,1.15
2022-12-11T19:25:50.061Z,0.68
2022-12-11T19:28:21.427Z,0.80
2022-12-11T19:30:52.466Z,0.75
2022-12-11T19:33:22.775Z,0.73
2022-12-11T19:36:02.065Z,0.90
2022-12-11T19:38:32.333Z,1.95
2022-12-11T19:41:06.337Z,1.65
2022-12-11T19:43:37.663Z,2.20
2022-12-11T19:46:09.851Z,1.23
2022-12-11T19:48:45.683Z,1.60
2022-12-11T19:51:22.022Z,1.42
2022-12-11T19:53:57.306Z,1.73
2022-12-11T19:56:29.291Z,1.23
2022-12-11T19:59:04.118Z,1.33
2022-12-11T20:01:38.500Z,1.10
2022-12-11T20:04:13.991Z,1.40
2022-12-11T20:06:50.719Z,1.50
2022-12-11T20:09:26.340Z,1.02
2022-12-11T20:11:59.940Z,0.90
2022-12-11T20:14:31.168Z,0.85
2022-12-11T20:17:11.330Z,1.20
2022-12-11T20:19:43.758Z,0.73
2022-12-11T20:22:14.581Z,0.98
2022-12-11T20:24:45.655Z,0.98
2022-12-11T20:27:16.520Z,1.05
2022-12-11T20:29:47.303Z,0.68
2022-12-11T20:32:18.052Z,1.05
2022-12-11T20:34:48.835Z,1.00
2022-12-11T20:37:19.142Z,1.30
2022-12-11T20:39:49.812Z,0.95
2022-12-11T20:42:20.262Z,1.27
2022-12-11T20:44:50.982Z,0.90
2022-12-11T20:47:22.524Z,0.50
2022-12-11T20:49:54.052Z,0.47
2022-12-11T20:52:27.058Z,0.70
2022-12-11T20:54:57.632Z,0.50
2022-12-11T20:57:28.832Z,0.88
2022-12-11T20:59:59.093Z,0.93
2022-12-11T21:02:32.611Z,0.80
2022-12-11T21:05:07.018Z,0.73
2022-12-11T21:07:38.745Z,0.60
2022-12-11T21:10:09.899Z,0.57
2022-12-11T21:12:42.335Z,0.50
2022-12-11T21:15:14.586Z,0.47
2022-12-11T21:17:45.604Z,0.40
2022-12-11T21:20:16.194Z,0.43
2022-12-11T21:22:50.776Z,0.32
2022-12-11T21:25:22.004Z,0.50
2022-12-11T21:27:59.397Z,0.45
2022-12-11T21:30:30.253Z,0.45
2022-12-11T21:33:01.023Z,0.70
2022-12-11T21:35:31.238Z,0.50
2022-12-11T21:38:02.048Z,0.25
2022-12-11T21:40:32.654Z,0.30
2022-12-11T21:43:03.063Z,0.40
2022-12-11T21:46:00.298Z,0.40
2022-12-11T21:48:27.183Z,0.57
2022-12-11T21:50:57.748Z,0.70
2022-12-11T21:53:29.068Z,0.35
2022-12-11T21:55:59.420Z,0.63
2022-12-11T21:58:29.897Z,0.40
2022-12-11T22:01:01.427Z,0.30
2022-12-11T22:03:31.753Z,0.30
2022-12-11T22:06:02.024Z,0.88
2022-12-11T22:08:32.619Z,0.50
2022-12-11T22:11:02.880Z,0.60
2022-12-11T22:13:35.728Z,0.50
2022-12-11T22:16:06.326Z,0.40
2022-12-11T22:18:37.242Z,0.65
2022-12-11T22:21:08.154Z,0.60
2022-12-11T22:23:46.011Z,0.50
2022-12-11T22:26:24.531Z,0.50
2022-12-11T22:28:55.758Z,0.40
2022-12-11T22:31:28.799Z,0.50
2022-12-11T22:33:59.588Z,0.73
2022-12-11T22:36:30.206Z,1.00
2022-12-11T22:39:02.187Z,0.60
2022-12-11T22:41:34.890Z,0.32
2022-12-11T22:44:05.253Z,0.50
2022-12-11T22:46:35.913Z,0.40
2022-12-11T22:49:06.245Z,0.40
2022-12-11T22:51:36.738Z,0.60
2022-12-11T22:54:07.780Z,0.63
2022-12-11T22:56:38.047Z,0.40
2022-12-11T22:59:09.527Z,0.40
2022-12-11T23:01:40.158Z,0.50
2022-12-11T23:04:10.416Z,0.45
2022-12-11T23:06:41.445Z,0.30
2022-12-11T23:09:12.963Z,0.40
2022-12-11T23:11:43.998Z,0.60
2022-12-11T23:14:18.533Z,0.47
2022-12-11T23:16:49.608Z,0.57
2022-12-11T23:19:25.270Z,0.32
2022-12-11T23:21:56.401Z,0.70
2022-12-11T23:24:26.710Z,0.50
2022-12-11T23:26:56.936Z,0.40
2022-12-11T23:29:27.667Z,0.28
2022-12-11T23:31:57.882Z,0.45
2022-12-11T23:34:30.632Z,0.40
2022-12-11T23:37:00.882Z,0.40
2022-12-11T23:39:31.179Z,0.55
2022-12-11T23:42:01.911Z,0.40
2022-12-11T23:44:32.590Z,0.40
2022-12-11T23:47:02.792Z,0.47
2022-12-11T23:49:33.461Z,0.50
2022-12-11T23:52:03.734Z,0.60
2022-12-11T23:54:34.528Z,0.50
2022-12-11T23:57:06.105Z,0.60
2022-12-11T23:59:36.575Z,0.75
